createdAt,value
2018-01-05T00:00:25.970Z,0
2018-01-05T00:01:34.753Z,0
2018-01-05T00:02:43.542Z,0
2018-01-05T00:03:52.072Z,0
2018-01-05T00:05:01.127Z,0
2018-01-05T00:06:09.915Z,0
2018-01-05T00:07:18.444Z,0
2018-01-05T00:08:27.508Z,0
2018-01-05T00:09:36.032Z,0
2018-01-05T00:10:44.824Z,0
2018-01-05T00:11:53.874Z,0
2018-01-05T00:13:02.666Z,0
2018-01-05T00:14:11.723Z,0
2018-01-05T00:15:20.253Z,0
2018-01-05T00:16:29.043Z,0
2018-01-05T00:17:37.570Z,0
2018-01-05T00:18:46.356Z,0
2018-01-05T00:19:55.146Z,0
2018-01-05T00:21:03.678Z,0
2018-01-05T00:22:12.471Z,0
2018-01-05T00:23:21.534Z,0
2018-01-05T00:24:30.585Z,0
2018-01-05T00:25:39.645Z,0
2018-01-05T00:26:48.431Z,0
2018-01-05T00:27:57.488Z,0
2018-01-05T00:29:06.289Z,0
2018-01-05T00:30:15.077Z,0
2018-01-05T00:31:24.132Z,0
2018-01-05T00:32:32.649Z,0
2018-01-05T00:33:41.449Z,0
2018-01-05T00:34:50.248Z,0
2018-01-05T00:35:58.789Z,0
2018-01-05T00:37:07.323Z,0
2018-01-05T00:38:16.390Z,0
2018-01-05T00:39:25.190Z,0
2018-01-05T00:40:33.727Z,0
2018-01-05T00:41:42.264Z,0
2018-01-05T00:42:51.067Z,0
2018-01-05T00:43:59.871Z,0
2018-01-05T00:45:08.671Z,0
2018-01-05T00:46:17.741Z,0
2018-01-05T00:47:26.551Z,0
2018-01-05T00:48:35.083Z,0
2018-01-05T00:49:43.884Z,0
2018-01-05T00:50:52.418Z,0
2018-01-05T00:52:01.482Z,0
2018-01-05T00:53:10.553Z,0
2018-01-05T00:54:19.623Z,0
2018-01-05T00:55:28.154Z,0
2018-01-05T00:56:36.948Z,0
2018-01-05T00:57:46.615Z,0
2018-01-05T00:58:55.414Z,0
2018-01-05T01:00:04.216Z,0
2018-01-05T01:01:13.019Z,0
2018-01-05T01:02:21.552Z,0
2018-01-05T01:03:30.085Z,0
2018-01-05T01:04:38.624Z,0
2018-01-05T01:05:47.429Z,0
2018-01-05T01:06:55.959Z,0
2018-01-05T01:08:05.025Z,0
2018-01-05T01:09:13.555Z,0
2018-01-05T01:10:22.358Z,0
2018-01-05T01:11:31.161Z,0
2018-01-05T01:12:39.965Z,0
2018-01-05T01:13:49.034Z,0
2018-01-05T01:14:58.431Z,0
2018-01-05T01:16:07.236Z,0
2018-01-05T01:17:16.305Z,0
2018-01-05T01:18:25.104Z,0
2018-01-05T01:19:34.174Z,0
2018-01-05T01:20:42.708Z,0
2018-01-05T01:21:51.509Z,0
2018-01-05T01:23:00.308Z,0
2018-01-05T01:24:09.370Z,0
2018-01-05T01:25:17.902Z,0
2018-01-05T01:26:26.702Z,0
2018-01-05T01:27:35.504Z,0
2018-01-05T01:28:44.840Z,0
2018-01-05T01:29:53.829Z,0
2018-01-05T01:31:02.908Z,0
2018-01-05T01:32:11.443Z,0
2018-01-05T01:33:19.981Z,0
2018-01-05T01:34:29.049Z,0
2018-01-05T01:35:38.162Z,0
2018-01-05T01:36:46.650Z,0
2018-01-05T01:37:55.188Z,0
2018-01-05T01:39:03.995Z,0
2018-01-05T01:40:12.539Z,0
2018-01-05T01:41:21.341Z,0
2018-01-05T01:42:30.144Z,0
2018-01-05T01:43:38.680Z,0
2018-01-05T01:44:47.480Z,0
2018-01-05T01:45:56.559Z,0
2018-01-05T01:47:06.127Z,0
2018-01-05T01:48:14.663Z,0
2018-01-05T01:49:23.466Z,0
2018-01-05T01:50:32.003Z,0
2018-01-05T01:51:41.077Z,0
2018-01-05T01:52:50.144Z,0
2018-01-05T01:53:59.476Z,0
2018-01-05T01:55:08.017Z,0
2018-01-05T01:56:16.821Z,0
2018-01-05T01:57:25.624Z,0
2018-01-05T01:58:34.442Z,0
2018-01-05T01:59:42.976Z,0
2018-01-05T02:00:51.776Z,0
2018-01-05T02:02:00.899Z,0
2018-01-05T02:03:09.430Z,0
2018-01-05T02:04:18.234Z,0
2018-01-05T02:05:27.301Z,0
2018-01-05T02:06:36.368Z,0
2018-01-05T02:07:44.904Z,0
2018-01-05T02:08:53.705Z,0
2018-01-05T02:10:02.770Z,0
2018-01-05T02:11:11.312Z,0
2018-01-05T02:12:19.849Z,0
2018-01-05T02:13:28.702Z,0
2018-01-05T02:14:37.236Z,0
2018-01-05T02:15:45.770Z,0
2018-01-05T02:16:54.838Z,0
2018-01-05T02:18:03.376Z,0
2018-01-05T02:19:12.446Z,0
2018-01-05T02:20:21.249Z,0
2018-01-05T02:21:29.781Z,0
2018-01-05T02:22:38.852Z,0
2018-01-05T02:23:47.923Z,0
2018-01-05T02:24:56.727Z,0
2018-01-05T02:26:05.799Z,0
2018-01-05T02:27:15.129Z,0
2018-01-05T02:28:23.932Z,0
2018-01-05T02:29:32.996Z,0
2018-01-05T02:30:41.798Z,0
2018-01-05T02:31:50.884Z,0
2018-01-05T02:32:59.419Z,0
2018-01-05T02:34:08.217Z,0
2018-01-05T02:35:16.750Z,0
2018-01-05T02:36:25.286Z,0
2018-01-05T02:37:33.820Z,0
2018-01-05T02:38:42.355Z,0
2018-01-05T02:39:51.426Z,0
2018-01-05T02:40:59.957Z,0
2018-01-05T02:42:08.489Z,0
2018-01-05T02:43:17.022Z,0
2018-01-05T02:44:25.555Z,0
2018-01-05T02:45:34.895Z,0
2018-01-05T02:46:43.424Z,0
2018-01-05T02:47:51.959Z,0
2018-01-05T02:49:01.034Z,0
2018-01-05T02:50:09.838Z,0
2018-01-05T02:51:18.909Z,0
2018-01-05T02:52:28.529Z,0
2018-01-05T02:53:37.062Z,0
2018-01-05T02:54:45.598Z,0
2018-01-05T02:55:54.138Z,0
2018-01-05T02:57:02.945Z,0
2018-01-05T02:58:11.479Z,0
2018-01-05T02:59:20.816Z,0
2018-01-05T03:00:29.885Z,0
2018-01-05T03:01:38.686Z,0
2018-01-05T03:02:47.221Z,0
2018-01-05T03:03:56.018Z,0
2018-01-05T03:05:05.351Z,0
2018-01-05T03:06:13.891Z,0
2018-01-05T03:07:22.429Z,0
2018-01-05T03:08:31.252Z,0
2018-01-05T03:09:39.786Z,0
2018-01-05T03:10:48.587Z,0
2018-01-05T03:11:57.389Z,0
2018-01-05T03:13:05.927Z,0
2018-01-05T03:14:14.992Z,0
2018-01-05T03:15:23.530Z,0
2018-01-05T03:16:32.332Z,0
2018-01-05T03:17:41.138Z,0
2018-01-05T03:18:49.946Z,0
2018-01-05T03:19:58.747Z,0
2018-01-05T03:21:07.550Z,0
2018-01-05T03:22:16.884Z,0
2018-01-05T03:23:25.685Z,0
2018-01-05T03:24:34.221Z,0
2018-01-05T03:25:43.026Z,0
2018-01-05T03:26:51.564Z,0
2018-01-05T03:28:00.095Z,0
2018-01-05T03:29:08.631Z,0
2018-01-05T03:30:17.458Z,0
2018-01-05T03:31:25.992Z,0
2018-01-05T03:32:34.796Z,0
2018-01-05T03:33:43.603Z,0
2018-01-05T03:34:52.140Z,0
2018-01-05T03:36:00.788Z,0
2018-01-05T03:37:09.856Z,0
2018-01-05T03:38:18.657Z,0
2018-01-05T03:39:27.471Z,0
2018-01-05T03:40:36.274Z,0
2018-01-05T03:41:45.076Z,0
2018-01-05T03:42:53.613Z,0
2018-01-05T03:44:02.416Z,0
2018-01-05T03:45:11.220Z,0
2018-01-05T03:46:19.757Z,0
2018-01-05T03:47:28.292Z,0
2018-01-05T03:48:36.824Z,0
2018-01-05T03:49:45.890Z,0
2018-01-05T03:50:56.142Z,0
2018-01-05T03:52:04.949Z,0
2018-01-05T03:53:13.482Z,0
2018-01-05T03:54:22.551Z,0
2018-01-05T03:55:31.089Z,0
2018-01-05T03:56:39.621Z,0
2018-01-05T03:57:48.422Z,0
2018-01-05T03:58:56.962Z,0
2018-01-05T04:00:06.034Z,0
2018-01-05T04:01:14.834Z,0
2018-01-05T04:02:24.168Z,0
2018-01-05T04:03:32.968Z,0
2018-01-05T04:04:41.770Z,0
2018-01-05T04:05:50.576Z,0
2018-01-05T04:06:59.637Z,0
2018-01-05T04:08:08.175Z,0
2018-01-05T04:09:16.977Z,0
2018-01-05T04:10:25.781Z,0
2018-01-05T04:11:34.316Z,0
2018-01-05T04:12:43.116Z,0
2018-01-05T04:13:51.917Z,0
2018-01-05T04:15:00.453Z,0
2018-01-05T04:16:08.987Z,0
2018-01-05T04:17:17.834Z,0
2018-01-05T04:18:26.662Z,0
2018-01-05T04:19:35.770Z,0
2018-01-05T04:20:44.575Z,0
2018-01-05T04:21:53.377Z,0
2018-01-05T04:23:01.913Z,0
2018-01-05T04:24:10.715Z,0
2018-01-05T04:25:19.523Z,0
2018-01-05T04:26:28.323Z,0
2018-01-05T04:27:37.125Z,0
2018-01-05T04:28:45.664Z,0
2018-01-05T04:29:54.510Z,0
2018-01-05T04:31:03.308Z,0
2018-01-05T04:32:11.846Z,0
2018-01-05T04:33:20.381Z,0
2018-01-05T04:34:29.452Z,0
2018-01-05T04:35:37.983Z,0
2018-01-05T04:36:46.525Z,0
2018-01-05T04:37:55.327Z,0
2018-01-05T04:39:04.126Z,0
2018-01-05T04:40:12.927Z,0
2018-01-05T04:41:21.464Z,0
2018-01-05T04:42:30.271Z,0
2018-01-05T04:43:39.610Z,0
2018-01-05T04:44:48.140Z,0
2018-01-05T04:45:57.211Z,0
2018-01-05T04:47:06.717Z,0
2018-01-05T04:48:15.519Z,0
2018-01-05T04:49:24.639Z,0
2018-01-05T04:50:33.448Z,0
2018-01-05T04:51:42.250Z,0
2018-01-05T04:52:50.784Z,0
2018-01-05T04:53:59.856Z,0
2018-01-05T04:55:08.664Z,0
2018-01-05T04:56:18.005Z,0
2018-01-05T04:57:27.073Z,0
2018-01-05T04:58:35.872Z,0
2018-01-05T04:59:44.669Z,0
2018-01-05T05:00:53.205Z,0
2018-01-05T05:02:02.010Z,0
2018-01-05T05:03:10.805Z,0
2018-01-05T05:04:19.610Z,0
2018-01-05T05:05:28.416Z,0
2018-01-05T05:06:37.216Z,0
2018-01-05T05:07:46.019Z,0
2018-01-05T05:08:54.554Z,0
2018-01-05T05:10:03.637Z,0
2018-01-05T05:11:12.442Z,0
2018-01-05T05:12:21.511Z,0
2018-01-05T05:13:30.315Z,0
2018-01-05T05:14:38.849Z,0
2018-01-05T05:15:47.384Z,0
2018-01-05T05:16:56.188Z,0
2018-01-05T05:18:04.992Z,0
2018-01-05T05:19:13.526Z,0
2018-01-05T05:20:22.590Z,0
2018-01-05T05:21:31.123Z,0
2018-01-05T05:22:39.925Z,0
2018-01-05T05:23:48.462Z,0
2018-01-05T05:24:57.266Z,0
2018-01-05T05:26:06.079Z,0
2018-01-05T05:27:15.156Z,0
2018-01-05T05:28:23.963Z,0
2018-01-05T05:29:33.029Z,0
2018-01-05T05:30:41.566Z,0
2018-01-05T05:31:50.645Z,0
2018-01-05T05:32:59.440Z,0
2018-01-05T05:34:08.239Z,0
2018-01-05T05:35:17.039Z,0
2018-01-05T05:36:25.572Z,0
2018-01-05T05:37:34.910Z,0
2018-01-05T05:38:43.717Z,0
2018-01-05T05:39:52.516Z,0
2018-01-05T05:41:01.318Z,0
2018-01-05T05:42:10.385Z,0
2018-01-05T05:43:18.923Z,0
2018-01-05T05:44:27.456Z,0
2018-01-05T05:45:36.523Z,0
2018-01-05T05:46:45.056Z,0
2018-01-05T05:47:54.125Z,0
2018-01-05T05:49:02.930Z,0
2018-01-05T05:50:11.464Z,0
2018-01-05T05:51:20.000Z,0
2018-01-05T05:52:29.068Z,0
2018-01-05T05:53:37.869Z,0
2018-01-05T05:54:46.669Z,0
2018-01-05T05:55:55.469Z,0
2018-01-05T05:57:04.003Z,0
2018-01-05T05:58:12.539Z,0
2018-01-05T05:59:21.085Z,0
2018-01-05T06:00:29.620Z,0
2018-01-05T06:01:38.158Z,0
2018-01-05T06:02:46.962Z,0
2018-01-05T06:03:55.765Z,0
2018-01-05T06:05:04.305Z,0
2018-01-05T06:06:13.105Z,0
2018-01-05T06:07:21.643Z,0
2018-01-05T06:08:30.460Z,0
2018-01-05T06:09:38.993Z,0
2018-01-05T06:10:47.794Z,0
2018-01-05T06:11:56.863Z,0
2018-01-05T06:13:05.936Z,0
2018-01-05T06:14:14.469Z,0
2018-01-05T06:15:23.001Z,0
2018-01-05T06:16:31.810Z,0
2018-01-05T06:17:41.148Z,0
2018-01-05T06:18:49.682Z,0
2018-01-05T06:19:58.486Z,0
2018-01-05T06:21:07.285Z,0
2018-01-05T06:22:16.087Z,0
2018-01-05T06:23:24.888Z,0
2018-01-05T06:24:33.422Z,0
2018-01-05T06:25:42.727Z,0
2018-01-05T06:26:51.533Z,0
2018-01-05T06:28:00.078Z,0
2018-01-05T06:29:08.879Z,0
2018-01-05T06:30:17.685Z,0
2018-01-05T06:31:26.217Z,0
2018-01-05T06:32:35.015Z,0
2018-01-05T06:33:43.555Z,0
2018-01-05T06:34:52.085Z,0
2018-01-05T06:36:01.154Z,0
2018-01-05T06:37:09.953Z,0
2018-01-05T06:38:18.755Z,0
2018-01-05T06:39:27.552Z,0
2018-01-05T06:40:36.086Z,0
2018-01-05T06:41:44.892Z,0
2018-01-05T06:42:53.965Z,0
2018-01-05T06:44:03.430Z,0
2018-01-05T06:45:12.229Z,0
2018-01-05T06:46:20.761Z,0
2018-01-05T06:47:29.295Z,0
2018-01-05T06:48:38.098Z,0
2018-01-05T06:49:46.902Z,0
2018-01-05T06:50:55.721Z,0
2018-01-05T06:52:04.263Z,0
2018-01-05T06:53:13.062Z,0
2018-01-05T06:54:21.864Z,0
2018-01-05T06:55:30.403Z,0
2018-01-05T06:56:38.940Z,0
2018-01-05T06:57:47.739Z,0
2018-01-05T06:58:56.538Z,0
2018-01-05T07:00:05.076Z,0
2018-01-05T07:01:14.144Z,0
2018-01-05T07:02:22.677Z,0
2018-01-05T07:03:31.742Z,0
2018-01-05T07:04:40.541Z,0
2018-01-05T07:05:49.074Z,0
2018-01-05T07:06:57.875Z,4
2018-01-05T07:08:06.413Z,4
2018-01-05T07:09:15.221Z,4
2018-01-05T07:10:24.019Z,4
2018-01-05T07:11:32.553Z,4
2018-01-05T07:12:41.355Z,4
2018-01-05T07:13:50.427Z,8
2018-01-05T07:14:59.231Z,4
2018-01-05T07:16:08.029Z,4
2018-01-05T07:17:16.563Z,4
2018-01-05T07:18:25.101Z,4
2018-01-05T07:19:33.635Z,4
2018-01-05T07:20:42.434Z,4
2018-01-05T07:21:50.968Z,4
2018-01-05T07:22:59.505Z,4
2018-01-05T07:24:08.729Z,4
2018-01-05T07:25:17.532Z,4
2018-01-05T07:26:26.066Z,8
2018-01-05T07:27:34.601Z,8
2018-01-05T07:28:43.401Z,8
2018-01-05T07:29:52.474Z,12
2018-01-05T07:31:01.545Z,12
2018-01-05T07:32:10.485Z,24
2018-01-05T07:33:19.700Z,32
2018-01-05T07:34:29.021Z,24
2018-01-05T07:35:37.819Z,36
2018-01-05T07:36:46.887Z,28
2018-01-05T07:37:55.740Z,32
2018-01-05T07:39:04.333Z,84
2018-01-05T07:40:13.284Z,116
2018-01-05T07:41:21.832Z,144
2018-01-05T07:42:30.679Z,132
2018-01-05T07:43:39.478Z,120
2018-01-05T07:44:48.777Z,136
2018-01-05T07:45:58.294Z,160
2018-01-05T07:47:07.106Z,160
2018-01-05T07:48:15.996Z,160
2018-01-05T07:49:25.749Z,152
2018-01-05T07:50:35.317Z,140
2018-01-05T07:51:44.363Z,132
2018-01-05T08:04:39.465Z,476
2018-01-05T08:05:48.663Z,640
2018-01-05T08:06:58.007Z,748
2018-01-05T08:08:06.937Z,820
2018-01-05T08:09:15.801Z,900
2018-01-05T08:10:25.189Z,972
2018-01-05T08:11:35.380Z,1012
2018-01-05T08:12:44.614Z,1032
2018-01-05T08:13:54.087Z,1048
2018-01-05T08:15:02.952Z,1076
2018-01-05T08:16:12.195Z,1100
2018-01-05T08:17:21.229Z,1108
2018-01-05T08:18:30.226Z,1104
2018-01-05T08:19:39.466Z,1108
2018-01-05T08:20:48.414Z,1148
2018-01-05T08:21:57.373Z,1204
2018-01-05T08:23:07.418Z,1264
2018-01-05T08:24:30.037Z,1368
2018-01-05T08:25:38.911Z,1456
2018-01-05T08:26:47.818Z,1536
2018-01-05T08:27:56.500Z,1612
2018-01-05T08:29:09.197Z,1676
2018-01-05T08:30:19.524Z,1728
2018-01-05T08:31:28.652Z,1776
2018-01-05T08:32:38.074Z,1816
2018-01-05T08:34:16.792Z,1848
2018-01-05T08:35:25.984Z,1852
2018-01-05T08:36:35.145Z,1844
2018-01-05T08:37:44.946Z,1828
2018-01-05T08:38:54.113Z,1868
2018-01-05T08:40:03.014Z,1968
2018-01-05T08:41:11.867Z,2048
2018-01-05T08:42:21.311Z,2080
2018-01-05T08:43:30.135Z,2112
2018-01-05T08:45:08.799Z,2296
2018-01-05T08:46:17.708Z,2364
2018-01-05T08:47:27.368Z,2340
2018-01-05T11:16:29.467Z,4224
2018-01-05T11:17:38.800Z,4404
2018-01-05T11:18:47.490Z,4504
2018-01-05T11:19:56.561Z,4440
2018-01-05T11:21:05.092Z,4400
2018-01-05T11:22:13.631Z,4400
2018-01-05T11:23:22.703Z,4316
2018-01-05T11:24:31.237Z,4332
2018-01-05T11:25:39.776Z,4596
2018-01-05T11:26:48.581Z,4832
2018-01-05T11:27:57.115Z,4968
2018-01-05T11:29:06.019Z,4844
2018-01-05T11:30:14.819Z,4816
2018-01-05T11:31:23.358Z,4812
2018-01-05T11:32:32.662Z,5000
2018-01-05T11:33:41.202Z,5052
2018-01-05T11:34:50.070Z,4916
2018-01-05T11:35:58.874Z,4956
2018-01-05T11:37:07.680Z,5076
2018-01-05T11:38:16.488Z,5488
2018-01-05T11:39:25.562Z,5704
2018-01-05T11:40:34.632Z,5528
2018-01-05T11:41:43.438Z,5228
2018-01-05T11:42:52.507Z,5160
2018-01-05T11:44:01.044Z,5076
2018-01-05T11:45:09.852Z,5104
2018-01-05T11:46:18.393Z,5096
2018-01-05T11:47:27.548Z,5232
2018-01-05T11:48:36.359Z,5284
2018-01-05T11:49:45.431Z,4856
2018-01-05T11:50:54.242Z,4444
2018-01-05T11:52:03.586Z,4320
2018-01-05T11:53:12.388Z,4764
2018-01-05T11:54:20.924Z,5200
2018-01-05T11:55:29.729Z,5572
2018-01-05T11:56:38.534Z,5768
2018-01-05T11:57:47.073Z,5612
2018-01-05T11:58:56.143Z,5320
2018-01-05T12:00:04.678Z,5356
2018-01-05T12:01:13.482Z,5540
2018-01-05T12:02:22.559Z,5528
2018-01-05T12:03:31.626Z,5124
2018-01-05T12:04:40.167Z,4904
2018-01-05T12:05:49.234Z,4972
2018-01-05T12:06:58.361Z,5296
2018-01-05T12:08:07.158Z,5328
2018-01-05T12:09:16.228Z,5592
2018-01-05T12:10:25.034Z,5564
2018-01-05T12:11:33.836Z,4848
2018-01-05T12:12:42.640Z,4456
2018-01-05T12:13:51.709Z,4324
2018-01-05T12:15:00.510Z,4096
2018-01-05T12:16:09.308Z,3936
2018-01-05T12:17:17.847Z,3996
2018-01-05T12:18:26.653Z,3980
2018-01-05T12:19:35.189Z,4060
2018-01-05T12:20:44.534Z,4124
2018-01-05T12:21:53.338Z,4248
2018-01-05T12:23:01.875Z,4364
2018-01-05T12:24:10.945Z,4424
2018-01-05T12:25:20.018Z,4516
2018-01-05T12:26:28.556Z,4600
2018-01-05T12:27:37.626Z,4700
2018-01-05T12:28:46.432Z,4772
2018-01-05T12:29:55.243Z,4708
2018-01-05T12:31:03.786Z,4620
2018-01-05T12:32:12.592Z,4384
2018-01-05T12:33:21.130Z,3640
2018-01-05T12:34:30.199Z,3592
2018-01-05T12:35:38.739Z,3560
2018-01-05T12:36:47.808Z,3668
2018-01-05T12:37:56.878Z,3860
2018-01-05T12:39:05.419Z,3940
2018-01-05T12:40:14.222Z,3964
2018-01-05T12:41:22.825Z,4028
2018-01-05T12:42:32.166Z,4220
2018-01-05T12:43:41.238Z,4312
2018-01-05T12:44:50.314Z,4420
2018-01-05T12:45:58.854Z,4428
2018-01-05T12:47:07.659Z,4504
2018-01-05T12:48:16.731Z,4596
2018-01-05T12:49:25.266Z,4596
2018-01-05T12:50:34.335Z,4236
2018-01-05T12:51:43.138Z,3980
2018-01-05T12:52:51.950Z,4068
2018-01-05T12:54:00.754Z,4188
2018-01-05T12:55:09.560Z,4280
2018-01-05T12:56:18.098Z,4196
2018-01-05T12:57:26.905Z,3896
2018-01-05T12:58:35.440Z,3608
2018-01-05T12:59:43.977Z,3344
2018-01-05T13:00:52.512Z,3328
2018-01-05T13:02:01.584Z,3296
2018-01-05T13:03:10.392Z,2920
2018-01-05T13:04:19.194Z,3044
2018-01-05T13:05:27.734Z,2988
2018-01-05T13:06:36.534Z,2920
2018-01-05T13:07:45.345Z,3120
2018-01-05T13:08:54.684Z,3392
2018-01-05T13:10:03.489Z,3624
2018-01-05T13:11:12.025Z,3648
2018-01-05T13:12:20.876Z,3472
2018-01-05T13:13:29.950Z,3364
2018-01-05T13:14:38.751Z,3312
2018-01-05T13:15:47.285Z,3264
2018-01-05T13:16:56.390Z,3288
2018-01-05T13:18:04.926Z,3352
2018-01-05T13:19:14.266Z,3272
2018-01-05T13:20:23.069Z,3232
2018-01-05T13:21:31.608Z,3248
2018-01-05T13:22:40.146Z,3160
2018-01-05T13:23:48.958Z,3140
2018-01-05T13:24:57.759Z,3116
2018-01-05T13:26:06.299Z,2956
2018-01-05T13:27:15.370Z,2764
2018-01-05T13:28:24.175Z,2684
2018-01-05T13:29:32.987Z,2740
2018-01-05T13:30:42.054Z,2808
2018-01-05T13:31:50.594Z,2880
2018-01-05T13:32:59.402Z,2916
2018-01-05T13:34:08.209Z,2916
2018-01-05T13:35:17.011Z,2980
2018-01-05T13:36:25.826Z,3004
2018-01-05T13:37:34.895Z,2868
2018-01-05T13:38:44.230Z,2780
2018-01-05T13:39:52.773Z,2764
2018-01-05T13:41:01.313Z,2836
2018-01-05T13:42:10.114Z,2996
2018-01-05T13:43:18.922Z,3100
2018-01-05T13:44:27.997Z,3108
2018-01-05T13:45:36.806Z,3080
2018-01-05T13:46:45.342Z,2836
2018-01-05T13:47:54.144Z,2660
2018-01-05T13:49:02.998Z,2656
2018-01-05T13:50:11.800Z,2688
2018-01-05T13:51:20.600Z,2712
2018-01-05T13:52:29.235Z,2800
2018-01-05T13:53:38.039Z,2868
2018-01-05T13:54:46.883Z,2952
2018-01-05T13:55:55.943Z,2996
2018-01-05T13:57:04.756Z,3064
2018-01-05T13:58:13.827Z,3004
2018-01-05T13:59:22.363Z,2860
2018-01-05T14:00:31.167Z,2852
2018-01-05T14:01:40.003Z,2932
2018-01-05T14:02:48.504Z,2904
2018-01-05T14:03:57.307Z,2788
2018-01-05T14:05:05.845Z,2580
2018-01-05T14:06:14.652Z,2452
2018-01-05T14:07:23.186Z,2264
2018-01-05T14:08:31.987Z,2200
2018-01-05T14:09:40.524Z,2336
2018-01-05T14:10:49.864Z,2644
2018-01-05T14:11:58.934Z,2604
2018-01-05T14:13:07.474Z,2332
2018-01-05T14:14:16.011Z,2120
2018-01-05T14:15:24.548Z,2056
2018-01-05T14:16:33.647Z,1980
2018-01-05T14:17:42.159Z,1916
2018-01-05T14:18:50.962Z,2004
2018-01-05T14:20:00.049Z,2000
2018-01-05T14:21:09.135Z,1912
2018-01-05T14:22:17.944Z,1860
2018-01-05T14:23:26.751Z,1872
2018-01-05T14:24:35.569Z,1920
2018-01-05T14:25:44.376Z,1944
2018-01-05T14:26:53.188Z,1836
2018-01-05T14:28:01.998Z,1760
2018-01-05T14:29:11.065Z,1724
2018-01-05T14:30:20.140Z,1756
2018-01-05T14:31:28.684Z,1732
2018-01-05T14:32:37.220Z,1676
2018-01-05T14:33:46.028Z,1620
2018-01-05T14:34:55.105Z,1544
2018-01-05T14:36:03.791Z,1488
2018-01-05T14:37:12.595Z,1496
2018-01-05T14:38:21.281Z,1508
2018-01-05T14:39:30.454Z,1512
2018-01-05T14:40:39.188Z,1464
2018-01-05T14:41:47.726Z,1416
2018-01-05T14:42:56.270Z,1364
2018-01-05T14:44:05.075Z,1312
2018-01-05T14:45:13.883Z,1248
2018-01-05T14:46:22.689Z,1232
2018-01-05T14:47:31.224Z,1284
2018-01-05T14:48:40.025Z,1316
2018-01-05T14:49:48.828Z,1296
2018-01-05T14:50:57.633Z,1272
2018-01-05T14:52:06.177Z,1240
2018-01-05T14:53:15.036Z,1208
2018-01-05T14:54:23.573Z,1168
2018-01-05T14:55:32.376Z,1144
2018-01-05T14:56:40.911Z,1128
2018-01-05T14:57:49.982Z,1096
2018-01-05T14:58:59.049Z,1036
2018-01-05T15:00:07.854Z,1000
2018-01-05T15:01:17.106Z,964
2018-01-05T15:02:25.914Z,948
2018-01-05T15:03:34.720Z,920
2018-01-05T15:04:43.522Z,864
2018-01-05T15:05:52.589Z,812
2018-01-05T15:07:01.931Z,780
2018-01-05T15:08:10.468Z,740
2018-01-05T15:09:19.291Z,708
2018-01-05T15:10:29.261Z,672
2018-01-05T15:11:38.073Z,644
2018-01-05T15:12:46.880Z,624
2018-01-05T15:13:55.962Z,616
2018-01-05T15:15:04.507Z,596
2018-01-05T15:16:13.311Z,552
2018-01-05T15:17:21.848Z,492
2018-01-05T15:18:30.384Z,420
2018-01-05T15:19:38.918Z,360
2018-01-05T15:20:47.721Z,332
2018-01-05T15:21:57.099Z,300
2018-01-05T15:23:06.213Z,276
2018-01-05T15:24:14.811Z,272
2018-01-05T15:25:23.611Z,252
2018-01-05T15:26:32.420Z,268
2018-01-05T15:27:41.223Z,284
2018-01-05T15:28:49.758Z,280
2018-01-05T15:29:58.563Z,268
2018-01-05T15:31:07.105Z,256
2018-01-05T15:32:15.909Z,244
2018-01-05T15:33:24.449Z,228
2018-01-05T15:34:35.141Z,212
2018-01-05T15:35:44.221Z,196
2018-01-05T15:36:53.291Z,188
2018-01-05T15:38:01.832Z,176
2018-01-05T15:39:10.644Z,164
2018-01-05T15:40:19.712Z,156
2018-01-05T15:41:28.516Z,152
2018-01-05T15:42:37.739Z,140
2018-01-05T15:43:46.917Z,132
2018-01-05T15:44:55.986Z,124
2018-01-05T15:46:04.516Z,124
2018-01-05T15:47:13.322Z,116
2018-01-05T15:48:21.857Z,108
2018-01-05T15:49:30.398Z,104
2018-01-05T15:50:39.469Z,100
2018-01-05T15:51:48.007Z,96
2018-01-05T15:52:56.870Z,96
2018-01-05T15:54:05.683Z,96
2018-01-05T15:55:14.588Z,92
2018-01-05T15:56:23.658Z,84
2018-01-05T15:57:32.192Z,88
2018-01-05T15:58:40.728Z,84
2018-01-05T15:59:49.263Z,80
2018-01-05T16:00:57.798Z,80
2018-01-05T16:02:06.675Z,76
2018-01-05T16:03:15.751Z,76
2018-01-05T16:04:24.825Z,76
2018-01-05T16:05:33.898Z,76
2018-01-05T16:06:42.700Z,72
2018-01-05T16:07:51.502Z,76
2018-01-05T16:09:00.302Z,72
2018-01-05T16:10:08.841Z,72
2018-01-05T16:11:18.185Z,76
2018-01-05T16:12:26.723Z,72
2018-01-05T16:13:35.266Z,72
2018-01-05T16:14:44.094Z,72
2018-01-05T16:15:53.189Z,72
2018-01-05T16:17:01.998Z,68
2018-01-05T16:18:10.527Z,68
2018-01-05T16:19:19.333Z,72
2018-01-05T16:20:27.870Z,72
2018-01-05T16:21:36.677Z,72
2018-01-05T16:22:45.483Z,72
2018-01-05T16:23:54.816Z,72
2018-01-05T16:25:03.353Z,72
2018-01-05T16:26:11.892Z,72
2018-01-05T16:27:20.745Z,72
2018-01-05T16:28:29.812Z,72
2018-01-05T16:29:38.885Z,72
2018-01-05T16:30:48.720Z,72
2018-01-05T16:31:57.215Z,72
2018-01-05T16:33:05.750Z,68
2018-01-05T16:34:14.284Z,72
2018-01-05T16:35:23.086Z,72
2018-01-05T16:36:31.888Z,72
2018-01-05T16:37:40.425Z,72
2018-01-05T16:38:48.963Z,72
2018-01-05T16:39:58.030Z,72
2018-01-05T16:41:06.574Z,72
2018-01-05T16:42:15.643Z,72
2018-01-05T16:43:24.455Z,72
2018-01-05T16:44:33.111Z,72
2018-01-05T16:45:42.532Z,72
2018-01-05T16:46:51.333Z,72
2018-01-05T16:47:59.868Z,72
2018-01-05T16:49:08.435Z,72
2018-01-05T16:50:17.236Z,72
2018-01-05T16:51:25.771Z,72
2018-01-05T16:52:36.876Z,72
2018-01-05T16:53:45.412Z,72
2018-01-05T16:54:54.494Z,72
2018-01-05T16:56:03.034Z,72
2018-01-05T16:57:11.573Z,72
2018-01-05T16:58:20.653Z,72
2018-01-05T16:59:29.457Z,72
2018-01-05T17:00:37.990Z,72
2018-01-05T17:01:46.535Z,72
2018-01-05T17:02:55.065Z,72
2018-01-05T17:04:03.664Z,72
2018-01-05T17:05:12.522Z,0
2018-01-05T17:06:21.607Z,0
2018-01-05T17:07:30.408Z,0
2018-01-05T17:08:38.941Z,0
2018-01-05T17:09:47.742Z,0
2018-01-05T17:10:57.078Z,0
2018-01-05T17:12:05.614Z,0
2018-01-05T17:13:14.684Z,0
2018-01-05T17:14:23.494Z,0
2018-01-05T17:15:32.561Z,0
2018-01-05T17:16:41.361Z,0
2018-01-05T17:17:50.164Z,0
2018-01-05T17:18:58.965Z,0
2018-01-05T17:20:07.504Z,0
2018-01-05T17:21:16.305Z,0
2018-01-05T17:22:25.110Z,0
2018-01-05T17:23:33.649Z,0
2018-01-05T17:24:42.187Z,0
2018-01-05T17:25:50.725Z,0
2018-01-05T17:26:59.531Z,0
2018-01-05T17:28:08.341Z,0
2018-01-05T17:29:16.878Z,0
2018-01-05T17:30:25.415Z,0
2018-01-05T17:31:34.748Z,0
2018-01-05T17:32:43.284Z,0
2018-01-05T17:33:52.086Z,0
2018-01-05T17:35:01.160Z,0
2018-01-05T17:36:09.699Z,0
2018-01-05T17:37:19.024Z,0
2018-01-05T17:38:28.099Z,0
2018-01-05T17:39:37.171Z,0
2018-01-05T17:40:45.707Z,0
2018-01-05T17:41:54.248Z,0
2018-01-05T17:43:02.779Z,0
2018-01-05T17:44:12.133Z,0
2018-01-05T17:45:20.654Z,0
2018-01-05T17:46:29.728Z,0
2018-01-05T17:47:38.278Z,0
2018-01-05T17:48:46.806Z,0
2018-01-05T17:49:56.142Z,0
2018-01-05T17:51:04.955Z,44
2018-01-05T17:52:13.486Z,0
2018-01-05T17:53:22.556Z,0
2018-01-05T17:54:31.491Z,0
2018-01-05T17:55:40.028Z,0
2018-01-05T17:56:48.856Z,0
2018-01-05T17:57:57.369Z,0
2018-01-05T17:59:06.444Z,0
2018-01-05T18:00:15.514Z,0
2018-01-05T18:01:24.317Z,0
2018-01-05T18:02:33.382Z,0
2018-01-05T18:03:41.918Z,0
2018-01-05T18:04:50.983Z,0
2018-01-05T18:05:59.521Z,0
2018-01-05T18:07:08.056Z,0
2018-01-05T18:08:17.130Z,0
2018-01-05T18:09:25.664Z,0
2018-01-05T18:10:34.201Z,0
2018-01-05T18:11:42.737Z,0
2018-01-05T18:12:51.272Z,0
2018-01-05T18:14:00.339Z,0
2018-01-05T18:15:09.140Z,0
2018-01-05T18:16:17.683Z,0
2018-01-05T18:17:26.482Z,0
2018-01-05T18:18:35.291Z,0
2018-01-05T18:19:44.094Z,0
2018-01-05T18:20:52.628Z,0
2018-01-05T18:22:01.166Z,0
2018-01-05T18:23:09.703Z,0
2018-01-05T18:24:18.858Z,0
2018-01-05T18:25:27.457Z,0
2018-01-05T18:26:36.351Z,0
2018-01-05T18:27:45.424Z,0
2018-01-05T18:28:53.963Z,0
2018-01-05T18:30:02.500Z,0
2018-01-05T18:31:11.302Z,0
2018-01-05T18:32:20.108Z,0
2018-01-05T18:33:28.909Z,0
2018-01-05T18:34:37.706Z,0
2018-01-05T18:35:46.243Z,0
2018-01-05T18:36:54.823Z,0
2018-01-05T18:38:03.891Z,0
2018-01-05T18:39:12.955Z,0
2018-01-05T18:40:22.711Z,0
2018-01-05T18:41:31.248Z,0
2018-01-05T18:42:40.053Z,0
2018-01-05T18:43:48.858Z,0
2018-01-05T18:44:57.392Z,0
2018-01-05T18:46:06.199Z,0
2018-01-05T18:47:14.735Z,0
2018-01-05T18:48:23.268Z,0
2018-01-05T18:49:32.068Z,0
2018-01-05T18:50:40.602Z,0
2018-01-05T18:51:49.672Z,0
2018-01-05T18:52:58.470Z,0
2018-01-05T18:54:07.274Z,0
2018-01-05T18:55:15.811Z,0
2018-01-05T18:56:24.613Z,0
2018-01-05T18:57:33.152Z,0
2018-01-05T18:58:41.965Z,0
2018-01-05T18:59:50.502Z,0
2018-01-05T19:00:59.040Z,0